Merced, CA

4:49 PM PST en Noviembre 22, 2014 (GMT -0800)
Merced Municipal-Macready | Change Station
CLOSE
Current Station
Aeropuerto
Location: Merced,
Altura: 154 ft
Estaciones meteorológicas cercanas

Alt 154 ft 37.28 °N, 120.51 °W | Updated 56 minutes ago

Despejado
Despejado
59 ° F
Sensación térmica 59 ° F
N
7
Viento Variable Viento desde ESE

Hoy
Alta -- | Baja -- ° F
--% Posibilidad de precipitaciones
Ayer
Alta -- | Baja -- ° F
Precip. -- pul
6:48 AM 4:47 PM
Luna nueva, 0% visible
Presión 30.14 pul
Visibilidad 6.0 Millas
Nubes Despejado
Punto de rocío 52 ° F
Humedad 78%
Precipitaciones 0.03 pul
Espesor de la nieve No disponible.
UV 0 de una escala de 12
Polen 1.40 de una escala de 12
Calidad del aire No disponible.
Flu Activity No disponible.
METAR KMCE 222353Z AUTO 11006KT 6SM HZ CLR 15/11 A3013 RMK AO2 SLP204 60003 T01500111 10156 20128 56002

More Conditions Fewer Conditions

Presión 30.14 pul
Visibilidad 6.0 Millas
Nubes Despejado
Punto de rocío 52 ° F
Humedad 78%
Precipitaciones 0.03 pul
Espesor de la nieve No disponible.
UV 0 de una escala de 12
Polen 1.40 de una escala de 12
Calidad del aire No disponible.
Flu Activity No disponible.
METAR KMCE 222353Z AUTO 11006KT 6SM HZ CLR 15/11 A3013 RMK AO2 SLP204 60003 T01500111 10156 20128 56002

More Conditions Fewer Conditions

10-Day Weather Forecast

Almanac

Astronomía

Nov. 22, 2014 Salida Puesta
Hora real
Crepúsculo civil
Crepúsculo náutico
Crepúsculo astronómico
Luna
Horas de luz
Horas de luz
Tomorrow will be .
, % of the Moon is Illuminated

Extremos de hoy

Máximos del estado Bajos del estado

Community

WunderPhotos

Upload Photos

1,772,938 ¡fotos cargadas!

WunderBlogs® & News

Nearby

Calidad del aire

  Calidad del aire Índice AQ Contaminante
Not available.

Grosos de nieve

Estación Profundido Altura

Actividad de terremotos

Ciudad Distance Mag. Tiempo y dato
Magnitud mínima muestra es 2,5.

Temperaturas de aguas costeras

Lugar Temperatura

Estaciones meteorológicas cercanas